CST,Max TemperatureF,Mean TemperatureF,Min TemperatureF,Max Dew PointF,MeanDew PointF,Min DewpointF,Max Humidity, Mean Humidity, Min Humidity, Max Sea Level PressureIn, Mean Sea Level PressureIn, Min Sea Level PressureIn, Max VisibilityMiles, Mean VisibilityMiles, Min VisibilityMiles, Max Wind SpeedMPH, Mean Wind SpeedMPH, Max Gust SpeedMPH,PrecipitationIn, CloudCover, Events, WindDirDegrees
2002-1-1,21,11,1,9,1,-4,85,68,45,30.48,30.40,30.32,10,10,10,16,6,20,0.00,0,,326
2002-1-2,19,11,3,7,3,-6,92,70,49,30.53,30.44,30.31,10,10,10,17,10,17,0.00,4,,331
2002-1-3,35,19,3,12,6,-2,92,58,33,30.30,30.16,30.03,10,10,10,22,8,29,0.00,0,,179
2002-1-4,39,30,21,25,19,14,86,66,49,30.02,29.97,29.89,10,10,10,17,12,22,0.00,0,,210
2002-1-5,50,38,26,30,25,18,81,65,40,30.08,30.03,29.99,10,10,10,17,6,23,0.00,2,,312
2002-1-6,37,26,14,28,19,7,75,63,45,30.31,30.16,30.04,10,10,10,28,12,36,0.00,5,,325
2002-1-7,41,24,6,16,10,1,92,61,33,30.30,30.11,29.90,10,10,10,20,7,25,0.00,0,,195
2002-1-8,64,44,24,34,26,16,80,56,32,29.90,29.83,29.78,10,10,10,13,4,,0.00,0,,238
2002-1-9,55,42,28,30,27,19,80,56,38,30.01,29.85,29.76,10,10,10,10,5,,0.00,0,,286
2002-1-10,48,34,19,28,24,14,80,63,40,30.23,30.13,30.00,10,10,10,21,8,26,0.00,0,,303
2002-1-11,53,35,17,37,20,10,86,61,28,30.22,30.12,30.04,10,10,10,24,5,39,0.00,1,,242
2002-1-12,48,39,30,28,18,7,80,50,20,30.18,30.04,29.79,10,10,10,20,12,26,0.00,1,,277
2002-1-13,55,44,33,30,23,12,75,45,34,29.76,29.60,29.53,10,10,10,24,14,37,0.00,2,,243
2002-1-14,42,32,21,28,20,12,80,60,34,30.16,29.93,29.65,10,10,10,33,21,39,0.00,5,,303
2002-1-15,33,24,14,16,13,9,86,65,44,30.28,30.19,30.06,10,10,10,12,7,16,0.00,0,,1
2002-1-16,35,25,15,18,14,7,80,61,35,30.17,30.09,30.00,10,10,10,20,12,25,0.00,0,,328
2002-1-17,42,28,14,19,14,9,86,59,34,30.24,30.17,30.14,10,10,10,14,3,22,0.00,3,,238
2002-1-18,28,19,10,21,13,3,86,70,47,30.28,30.19,30.02,10,9,2,12,6,16,0.00,4,,69
2002-1-19,35,25,15,21,19,10,93,75,56,30.04,29.97,29.88,10,8,1,20,6,22,0.01,2,,226
2002-1-20,42,32,23,19,19,18,80,60,39,29.87,29.70,29.56,10,10,10,22,11,29,0.00,0,,199
2002-1-21,57,38,19,19,15,12,86,45,18,29.94,29.87,29.75,10,10,10,17,8,24,0.00,0,,223
2002-1-22,60,45,30,23,20,14,60,41,22,29.89,29.67,29.55,10,10,10,25,10,32,0.00,0,,169
2002-1-23,39,28,15,25,19,10,80,67,45,30.11,29.95,29.65,10,10,10,24,13,30,0.00,1,,346
2002-1-24,46,28,10,19,10,5,92,56,22,30.16,30.12,30.09,10,10,7,20,6,26,0.00,0,,269
2002-1-25,60,40,21,12,10,9,59,34,13,30.16,30.02,29.90,10,10,10,26,9,32,0.00,0,,191
2002-1-26,66,49,32,23,16,10,44,29,17,29.94,29.88,29.81,10,10,10,17,13,24,0.65,0,,182
2002-1-27,60,40,21,27,23,12,68,44,25,29.93,29.80,29.72,10,10,10,20,13,25,0.00,0,,188
2002-1-28,28,22,15,16,12,10,80,67,55,29.98,29.94,29.89,10,10,10,17,12,21,0.00,2,,357
2002-1-29,21,19,17,12,11,7,79,70,54,30.16,30.05,29.97,10,10,10,15,12,17,0.00,5,,337
2002-1-30,21,19,17,18,10,3,86,69,46,30.25,30.17,30.04,10,7,1,17,11,23,0.01,6,,7
2002-1-31,26,22,17,25,19,12,93,83,79,30.14,29.99,29.92,10,4,0,22,14,29,0.03,7,,351